sensor_id;sensor_type;location;lat;lon;timestamp;temperature;humidity
3136;DHT22;1578;47.658;9.922;2023-09-19T00:01:06;14.20;94.60
3136;DHT22;1578;47.658;9.922;2023-09-19T00:03:35;14.20;94.90
3136;DHT22;1578;47.658;9.922;2023-09-19T00:06:04;14.30;94.60
3136;DHT22;1578;47.658;9.922;2023-09-19T00:08:31;14.20;94.30
3136;DHT22;1578;47.658;9.922;2023-09-19T00:10:56;14.20;94.30
3136;DHT22;1578;47.658;9.922;2023-09-19T00:13:29;14.30;95.10
3136;DHT22;1578;47.658;9.922;2023-09-19T00:15:56;14.30;94.60
3136;DHT22;1578;47.658;9.922;2023-09-19T00:18:24;14.40;93.90
3136;DHT22;1578;47.658;9.922;2023-09-19T00:20:57;14.40;94.60
3136;DHT22;1578;47.658;9.922;2023-09-19T00:23:23;14.50;93.60
3136;DHT22;1578;47.658;9.922;2023-09-19T00:25:50;14.50;93.90
3136;DHT22;1578;47.658;9.922;2023-09-19T00:28:16;14.50;94.00
3136;DHT22;1578;47.658;9.922;2023-09-19T00:30:44;14.60;94.10
3136;DHT22;1578;47.658;9.922;2023-09-19T00:33:10;14.60;93.80
3136;DHT22;1578;47.658;9.922;2023-09-19T00:35:51;14.60;94.20
3136;DHT22;1578;47.658;9.922;2023-09-19T00:38:18;14.50;94.90
3136;DHT22;1578;47.658;9.922;2023-09-19T00:40:47;14.60;94.30
3136;DHT22;1578;47.658;9.922;2023-09-19T00:43:13;14.60;94.20
3136;DHT22;1578;47.658;9.922;2023-09-19T00:45:43;14.50;94.60
3136;DHT22;1578;47.658;9.922;2023-09-19T00:48:09;14.60;94.70
3136;DHT22;1578;47.658;9.922;2023-09-19T00:50:35;14.60;94.70
3136;DHT22;1578;47.658;9.922;2023-09-19T00:53:02;14.60;94.70
3136;DHT22;1578;47.658;9.922;2023-09-19T00:55:36;14.70;94.20
3136;DHT22;1578;47.658;9.922;2023-09-19T00:58:03;14.60;95.40
3136;DHT22;1578;47.658;9.922;2023-09-19T01:00:32;14.60;95.60
3136;DHT22;1578;47.658;9.922;2023-09-19T01:03:00;14.70;94.80
3136;DHT22;1578;47.658;9.922;2023-09-19T01:05:27;14.70;94.60
3136;DHT22;1578;47.658;9.922;2023-09-19T01:07:53;14.70;94.80
3136;DHT22;1578;47.658;9.922;2023-09-19T01:10:20;14.60;95.40
3136;DHT22;1578;47.658;9.922;2023-09-19T01:13:15;14.50;96.20
3136;DHT22;1578;47.658;9.922;2023-09-19T01:18:27;14.60;95.50
3136;DHT22;1578;47.658;9.922;2023-09-19T01:21:15;14.70;96.20
3136;DHT22;1578;47.658;9.922;2023-09-19T01:26:30;14.70;95.70
3136;DHT22;1578;47.658;9.922;2023-09-19T01:31:45;14.70;95.00
3136;DHT22;1578;47.658;9.922;2023-09-19T01:34:12;14.60;94.90
3136;DHT22;1578;47.658;9.922;2023-09-19T01:36:38;14.60;95.00
3136;DHT22;1578;47.658;9.922;2023-09-19T01:39:04;14.70;95.10
3136;DHT22;1578;47.658;9.922;2023-09-19T01:44:31;14.70;94.80
3136;DHT22;1578;47.658;9.922;2023-09-19T01:47:01;14.70;94.60
3136;DHT22;1578;47.658;9.922;2023-09-19T01:52:12;14.80;94.80
3136;DHT22;1578;47.658;9.922;2023-09-19T01:54:58;14.80;94.80
3136;DHT22;1578;47.658;9.922;2023-09-19T01:57:30;14.90;94.60
3136;DHT22;1578;47.658;9.922;2023-09-19T02:00:10;14.80;94.20
3136;DHT22;1578;47.658;9.922;2023-09-19T02:02:43;15.00;94.20
3136;DHT22;1578;47.658;9.922;2023-09-19T02:05:10;14.80;94.50
3136;DHT22;1578;47.658;9.922;2023-09-19T02:07:35;14.80;94.20
3136;DHT22;1578;47.658;9.922;2023-09-19T02:10:04;14.70;95.40
3136;DHT22;1578;47.658;9.922;2023-09-19T02:12:32;14.60;95.20
3136;DHT22;1578;47.658;9.922;2023-09-19T02:14:58;14.70;95.70
3136;DHT22;1578;47.658;9.922;2023-09-19T02:17:25;14.70;96.10
3136;DHT22;1578;47.658;9.922;2023-09-19T02:19:54;14.70;95.60
3136;DHT22;1578;47.658;9.922;2023-09-19T02:22:20;14.70;95.30
3136;DHT22;1578;47.658;9.922;2023-09-19T02:24:46;14.70;95.00
3136;DHT22;1578;47.658;9.922;2023-09-19T02:27:13;14.70;94.30
3136;DHT22;1578;47.658;9.922;2023-09-19T02:29:41;14.70;95.30
3136;DHT22;1578;47.658;9.922;2023-09-19T02:32:07;14.60;94.50
3136;DHT22;1578;47.658;9.922;2023-09-19T02:34:35;14.60;94.70
3136;DHT22;1578;47.658;9.922;2023-09-19T02:37:03;14.60;95.10
3136;DHT22;1578;47.658;9.922;2023-09-19T02:39:31;14.60;95.10
3136;DHT22;1578;47.658;9.922;2023-09-19T02:41:56;14.70;94.80
3136;DHT22;1578;47.658;9.922;2023-09-19T02:44:22;14.70;95.10
3136;DHT22;1578;47.658;9.922;2023-09-19T02:46:49;14.80;94.80
3136;DHT22;1578;47.658;9.922;2023-09-19T02:49:15;14.80;94.10
3136;DHT22;1578;47.658;9.922;2023-09-19T02:51:46;14.80;93.10
3136;DHT22;1578;47.658;9.922;2023-09-19T02:54:12;14.80;94.40
3136;DHT22;1578;47.658;9.922;2023-09-19T02:56:39;14.90;93.80
3136;DHT22;1578;47.658;9.922;2023-09-19T02:59:05;14.80;94.40
3136;DHT22;1578;47.658;9.922;2023-09-19T03:01:31;14.70;94.80
3136;DHT22;1578;47.658;9.922;2023-09-19T03:03:57;14.70;95.50
3136;DHT22;1578;47.658;9.922;2023-09-19T03:06:23;14.80;94.90
3136;DHT22;1578;47.658;9.922;2023-09-19T03:08:49;14.80;94.40
3136;DHT22;1578;47.658;9.922;2023-09-19T03:11:17;14.80;94.80
3136;DHT22;1578;47.658;9.922;2023-09-19T03:13:51;14.80;94.80
3136;DHT22;1578;47.658;9.922;2023-09-19T03:16:17;14.90;94.50
3136;DHT22;1578;47.658;9.922;2023-09-19T03:18:42;14.90;94.50
3136;DHT22;1578;47.658;9.922;2023-09-19T03:21:08;15.00;93.70
3136;DHT22;1578;47.658;9.922;2023-09-19T03:23:34;15.00;93.90
3136;DHT22;1578;47.658;9.922;2023-09-19T03:25:59;15.10;93.60
3136;DHT22;1578;47.658;9.922;2023-09-19T03:28:25;15.00;93.70
3136;DHT22;1578;47.658;9.922;2023-09-19T03:30:58;15.00;94.00
3136;DHT22;1578;47.658;9.922;2023-09-19T03:33:25;14.90;93.70
3136;DHT22;1578;47.658;9.922;2023-09-19T03:35:54;15.00;93.80
3136;DHT22;1578;47.658;9.922;2023-09-19T03:38:20;15.00;94.40
3136;DHT22;1578;47.658;9.922;2023-09-19T03:40:47;15.10;93.60
3136;DHT22;1578;47.658;9.922;2023-09-19T03:43:13;15.10;93.60
3136;DHT22;1578;47.658;9.922;2023-09-19T03:45:38;15.10;93.80
3136;DHT22;1578;47.658;9.922;2023-09-19T03:48:11;15.10;93.70
3136;DHT22;1578;47.658;9.922;2023-09-19T03:50:37;15.10;93.60
3136;DHT22;1578;47.658;9.922;2023-09-19T03:53:03;15.20;93.60
3136;DHT22;1578;47.658;9.922;2023-09-19T03:55:29;15.20;93.30
3136;DHT22;1578;47.658;9.922;2023-09-19T03:57:57;15.10;93.40
3136;DHT22;1578;47.658;9.922;2023-09-19T04:00:23;15.20;93.00
3136;DHT22;1578;47.658;9.922;2023-09-19T04:02:52;15.10;93.20
3136;DHT22;1578;47.658;9.922;2023-09-19T04:05:18;15.00;93.40
3136;DHT22;1578;47.658;9.922;2023-09-19T04:07:44;15.10;93.00
3136;DHT22;1578;47.658;9.922;2023-09-19T04:10:10;15.00;93.60
3136;DHT22;1578;47.658;9.922;2023-09-19T04:12:37;14.90;93.00
3136;DHT22;1578;47.658;9.922;2023-09-19T04:15:05;14.80;94.20
3136;DHT22;1578;47.658;9.922;2023-09-19T04:17:30;14.80;94.80
3136;DHT22;1578;47.658;9.922;2023-09-19T04:19:58;14.80;94.50
3136;DHT22;1578;47.658;9.922;2023-09-19T04:22:25;14.80;94.40
3136;DHT22;1578;47.658;9.922;2023-09-19T04:24:51;14.90;94.60
3136;DHT22;1578;47.658;9.922;2023-09-19T04:27:17;14.80;94.50
3136;DHT22;1578;47.658;9.922;2023-09-19T04:29:44;14.80;94.80
3136;DHT22;1578;47.658;9.922;2023-09-19T04:32:09;14.80;94.80
3136;DHT22;1578;47.658;9.922;2023-09-19T04:34:35;14.70;94.80
3136;DHT22;1578;47.658;9.922;2023-09-19T04:37:02;14.80;94.80
3136;DHT22;1578;47.658;9.922;2023-09-19T04:39:29;14.90;94.60
3136;DHT22;1578;47.658;9.922;2023-09-19T04:41:54;14.80;94.40
3136;DHT22;1578;47.658;9.922;2023-09-19T04:44:20;14.80;94.00
3136;DHT22;1578;47.658;9.922;2023-09-19T04:46:46;14.80;94.00
3136;DHT22;1578;47.658;9.922;2023-09-19T04:49:12;14.90;94.10
3136;DHT22;1578;47.658;9.922;2023-09-19T04:51:38;14.90;94.00
3136;DHT22;1578;47.658;9.922;2023-09-19T04:54:05;15.00;93.80
3136;DHT22;1578;47.658;9.922;2023-09-19T04:56:31;14.90;93.00
3136;DHT22;1578;47.658;9.922;2023-09-19T04:58:58;14.90;93.40
3136;DHT22;1578;47.658;9.922;2023-09-19T05:01:27;14.80;93.50
3136;DHT22;1578;47.658;9.922;2023-09-19T05:03:52;14.90;93.60
3136;DHT22;1578;47.658;9.922;2023-09-19T05:06:21;14.90;92.90
3136;DHT22;1578;47.658;9.922;2023-09-19T05:08:47;14.90;93.20
3136;DHT22;1578;47.658;9.922;2023-09-19T05:11:18;14.90;93.00
3136;DHT22;1578;47.658;9.922;2023-09-19T05:13:44;14.90;92.90
3136;DHT22;1578;47.658;9.922;2023-09-19T05:16:09;15.00;92.50
3136;DHT22;1578;47.658;9.922;2023-09-19T05:18:36;15.00;92.30
3136;DHT22;1578;47.658;9.922;2023-09-19T05:21:04;15.00;92.30
3136;DHT22;1578;47.658;9.922;2023-09-19T05:23:30;15.20;92.10
3136;DHT22;1578;47.658;9.922;2023-09-19T05:25:56;15.20;92.40
3136;DHT22;1578;47.658;9.922;2023-09-19T05:28:24;15.10;92.70
3136;DHT22;1578;47.658;9.922;2023-09-19T05:30:49;15.10;92.70
3136;DHT22;1578;47.658;9.922;2023-09-19T05:33:15;15.20;93.00
3136;DHT22;1578;47.658;9.922;2023-09-19T05:35:41;15.20;93.20
3136;DHT22;1578;47.658;9.922;2023-09-19T05:38:07;15.30;93.00
3136;DHT22;1578;47.658;9.922;2023-09-19T05:40:38;15.30;92.50
3136;DHT22;1578;47.658;9.922;2023-09-19T05:43:06;15.40;92.80
3136;DHT22;1578;47.658;9.922;2023-09-19T05:45:31;15.40;92.90
3136;DHT22;1578;47.658;9.922;2023-09-19T05:48:10;15.40;92.80
3136;DHT22;1578;47.658;9.922;2023-09-19T05:50:37;15.50;92.40
3136;DHT22;1578;47.658;9.922;2023-09-19T05:53:04;15.40;92.60
3136;DHT22;1578;47.658;9.922;2023-09-19T05:55:30;15.40;92.40
3136;DHT22;1578;47.658;9.922;2023-09-19T05:57:56;15.50;92.80
3136;DHT22;1578;47.658;9.922;2023-09-19T06:00:23;15.50;93.10
3136;DHT22;1578;47.658;9.922;2023-09-19T06:02:56;15.50;92.40
3136;DHT22;1578;47.658;9.922;2023-09-19T06:05:27;15.60;91.90
3136;DHT22;1578;47.658;9.922;2023-09-19T06:07:53;15.70;91.50
3136;DHT22;1578;47.658;9.922;2023-09-19T06:10:19;15.70;90.60
3136;DHT22;1578;47.658;9.922;2023-09-19T06:12:49;15.70;90.90
3136;DHT22;1578;47.658;9.922;2023-09-19T06:15:16;15.60;92.00
3136;DHT22;1578;47.658;9.922;2023-09-19T06:17:48;15.60;92.10
3136;DHT22;1578;47.658;9.922;2023-09-19T06:20:14;15.70;92.20
3136;DHT22;1578;47.658;9.922;2023-09-19T06:22:42;15.70;92.60
3136;DHT22;1578;47.658;9.922;2023-09-19T06:25:09;15.80;92.60
3136;DHT22;1578;47.658;9.922;2023-09-19T06:27:38;15.80;92.70
3136;DHT22;1578;47.658;9.922;2023-09-19T06:30:04;15.80;92.80
3136;DHT22;1578;47.658;9.922;2023-09-19T06:32:30;15.90;93.30
3136;DHT22;1578;47.658;9.922;2023-09-19T06:34:55;16.00;92.80
3136;DHT22;1578;47.658;9.922;2023-09-19T06:37:21;16.10;92.90
3136;DHT22;1578;47.658;9.922;2023-09-19T06:39:47;16.20;82.00
3136;DHT22;1578;47.658;9.922;2023-09-19T06:42:16;16.20;86.90
3136;DHT22;1578;47.658;9.922;2023-09-19T06:44:43;16.20;90.90
3136;DHT22;1578;47.658;9.922;2023-09-19T06:47:08;16.30;90.80
3136;DHT22;1578;47.658;9.922;2023-09-19T06:49:35;16.40;90.10
3136;DHT22;1578;47.658;9.922;2023-09-19T06:52:01;16.60;74.10
3136;DHT22;1578;47.658;9.922;2023-09-19T06:54:27;16.60;72.80
3136;DHT22;1578;47.658;9.922;2023-09-19T06:56:56;16.60;71.30
3136;DHT22;1578;47.658;9.922;2023-09-19T06:59:24;16.70;76.10
3136;DHT22;1578;47.658;9.922;2023-09-19T07:01:50;16.80;78.40
3136;DHT22;1578;47.658;9.922;2023-09-19T07:04:16;17.00;71.70
3136;DHT22;1578;47.658;9.922;2023-09-19T07:06:42;17.10;72.70
3136;DHT22;1578;47.658;9.922;2023-09-19T07:09:08;17.30;71.60
3136;DHT22;1578;47.658;9.922;2023-09-19T07:11:34;17.50;75.10
3136;DHT22;1578;47.658;9.922;2023-09-19T07:14:00;17.70;67.60
3136;DHT22;1578;47.658;9.922;2023-09-19T07:16:28;17.70;66.40
3136;DHT22;1578;47.658;9.922;2023-09-19T07:18:55;17.70;59.50
3136;DHT22;1578;47.658;9.922;2023-09-19T07:21:22;17.70;64.10
3136;DHT22;1578;47.658;9.922;2023-09-19T07:23:48;17.50;61.80
3136;DHT22;1578;47.658;9.922;2023-09-19T07:26:15;17.50;63.30
3136;DHT22;1578;47.658;9.922;2023-09-19T07:28:40;17.50;62.70
3136;DHT22;1578;47.658;9.922;2023-09-19T07:31:06;17.30;61.60
3136;DHT22;1578;47.658;9.922;2023-09-19T07:33:35;17.30;62.50
3136;DHT22;1578;47.658;9.922;2023-09-19T07:36:01;17.30;62.50
3136;DHT22;1578;47.658;9.922;2023-09-19T07:38:27;17.30;64.40
3136;DHT22;1578;47.658;9.922;2023-09-19T07:40:53;17.30;60.20
3136;DHT22;1578;47.658;9.922;2023-09-19T07:43:19;17.30;64.20
3136;DHT22;1578;47.658;9.922;2023-09-19T07:45:44;17.40;70.80
3136;DHT22;1578;47.658;9.922;2023-09-19T07:48:10;17.40;62.90
3136;DHT22;1578;47.658;9.922;2023-09-19T07:50:42;17.50;61.10
3136;DHT22;1578;47.658;9.922;2023-09-19T07:53:09;17.40;66.40
3136;DHT22;1578;47.658;9.922;2023-09-19T07:55:34;17.50;62.90
3136;DHT22;1578;47.658;9.922;2023-09-19T07:58:00;17.50;62.70
3136;DHT22;1578;47.658;9.922;2023-09-19T08:00:26;17.40;59.80
3136;DHT22;1578;47.658;9.922;2023-09-19T08:02:51;17.50;62.40
3136;DHT22;1578;47.658;9.922;2023-09-19T08:05:17;17.60;63.60
3136;DHT22;1578;47.658;9.922;2023-09-19T08:07:46;17.70;63.70
3136;DHT22;1578;47.658;9.922;2023-09-19T08:10:15;17.80;59.60
3136;DHT22;1578;47.658;9.922;2023-09-19T08:12:45;17.90;56.00
3136;DHT22;1578;47.658;9.922;2023-09-19T08:15:18;18.00;60.30
3136;DHT22;1578;47.658;9.922;2023-09-19T08:17:45;18.10;59.40
3136;DHT22;1578;47.658;9.922;2023-09-19T08:20:11;18.20;55.20
3136;DHT22;1578;47.658;9.922;2023-09-19T08:22:49;18.30;53.70
3136;DHT22;1578;47.658;9.922;2023-09-19T08:25:18;18.20;50.10
3136;DHT22;1578;47.658;9.922;2023-09-19T08:27:44;18.20;51.80
3136;DHT22;1578;47.658;9.922;2023-09-19T08:30:20;18.30;52.20
3136;DHT22;1578;47.658;9.922;2023-09-19T08:32:50;18.40;56.20
3136;DHT22;1578;47.658;9.922;2023-09-19T08:35:15;18.60;46.70
3136;DHT22;1578;47.658;9.922;2023-09-19T08:37:42;18.20;48.00
3136;DHT22;1578;47.658;9.922;2023-09-19T08:40:10;18.10;53.80
3136;DHT22;1578;47.658;9.922;2023-09-19T08:42:51;18.10;52.40
3136;DHT22;1578;47.658;9.922;2023-09-19T08:45:19;18.10;49.50
3136;DHT22;1578;47.658;9.922;2023-09-19T08:50:33;18.60;50.00
3136;DHT22;1578;47.658;9.922;2023-09-19T08:53:10;18.70;49.30
3136;DHT22;1578;47.658;9.922;2023-09-19T08:55:40;18.90;49.80
3136;DHT22;1578;47.658;9.922;2023-09-19T08:58:10;19.00;47.90
3136;DHT22;1578;47.658;9.922;2023-09-19T09:00:36;19.20;49.60
3136;DHT22;1578;47.658;9.922;2023-09-19T09:03:03;19.20;48.40
3136;DHT22;1578;47.658;9.922;2023-09-19T09:05:33;19.40;41.50
3136;DHT22;1578;47.658;9.922;2023-09-19T09:08:00;19.60;47.20
3136;DHT22;1578;47.658;9.922;2023-09-19T09:10:26;19.30;40.60
3136;DHT22;1578;47.658;9.922;2023-09-19T09:12:53;19.20;45.30
3136;DHT22;1578;47.658;9.922;2023-09-19T09:15:21;18.90;46.20
3136;DHT22;1578;47.658;9.922;2023-09-19T09:17:49;18.80;43.80
3136;DHT22;1578;47.658;9.922;2023-09-19T09:20:16;19.20;43.60
3136;DHT22;1578;47.658;9.922;2023-09-19T09:22:53;19.10;40.30
3136;DHT22;1578;47.658;9.922;2023-09-19T09:25:19;19.00;43.70
3136;DHT22;1578;47.658;9.922;2023-09-19T09:27:59;19.20;45.00
3136;DHT22;1578;47.658;9.922;2023-09-19T09:30:36;19.40;38.00
3136;DHT22;1578;47.658;9.922;2023-09-19T09:33:09;19.70;40.90
3136;DHT22;1578;47.658;9.922;2023-09-19T09:35:37;20.00;41.70
3136;DHT22;1578;47.658;9.922;2023-09-19T09:38:06;20.10;37.70
3136;DHT22;1578;47.658;9.922;2023-09-19T09:40:48;20.00;32.80
3136;DHT22;1578;47.658;9.922;2023-09-19T09:43:37;19.80;34.10
3136;DHT22;1578;47.658;9.922;2023-09-19T09:46:17;19.40;39.00
3136;DHT22;1578;47.658;9.922;2023-09-19T09:51:42;19.40;33.80
3136;DHT22;1578;47.658;9.922;2023-09-19T09:54:16;19.40;34.20
3136;DHT22;1578;47.658;9.922;2023-09-19T09:56:56;19.30;37.10
3136;DHT22;1578;47.658;9.922;2023-09-19T09:59:53;19.00;36.30
3136;DHT22;1578;47.658;9.922;2023-09-19T10:02:27;18.80;38.90
3136;DHT22;1578;47.658;9.922;2023-09-19T10:04:59;19.10;40.30
3136;DHT22;1578;47.658;9.922;2023-09-19T10:07:49;19.30;37.10
3136;DHT22;1578;47.658;9.922;2023-09-19T10:10:37;19.40;31.80
3136;DHT22;1578;47.658;9.922;2023-09-19T10:13:10;19.40;37.90
3136;DHT22;1578;47.658;9.922;2023-09-19T10:15:43;19.50;37.70
3136;DHT22;1578;47.658;9.922;2023-09-19T10:18:20;19.10;37.40
3136;DHT22;1578;47.658;9.922;2023-09-19T10:20:46;19.20;37.10
3136;DHT22;1578;47.658;9.922;2023-09-19T10:23:15;19.60;34.20
3136;DHT22;1578;47.658;9.922;2023-09-19T10:25:47;19.60;33.50
3136;DHT22;1578;47.658;9.922;2023-09-19T10:28:14;19.60;39.60
3136;DHT22;1578;47.658;9.922;2023-09-19T10:30:44;20.00;36.70
3136;DHT22;1578;47.658;9.922;2023-09-19T10:33:14;19.90;36.30
3136;DHT22;1578;47.658;9.922;2023-09-19T10:35:43;19.70;33.40
3136;DHT22;1578;47.658;9.922;2023-09-19T10:38:10;19.90;32.30
3136;DHT22;1578;47.658;9.922;2023-09-19T10:40:38;19.70;32.60
3136;DHT22;1578;47.658;9.922;2023-09-19T10:43:17;19.70;35.10
3136;DHT22;1578;47.658;9.922;2023-09-19T10:45:51;19.70;31.90
3136;DHT22;1578;47.658;9.922;2023-09-19T10:48:19;19.80;33.40
3136;DHT22;1578;47.658;9.922;2023-09-19T10:53:17;19.30;32.30
3136;DHT22;1578;47.658;9.922;2023-09-19T10:55:59;19.20;35.50
3136;DHT22;1578;47.658;9.922;2023-09-19T10:58:29;19.30;34.30
3136;DHT22;1578;47.658;9.922;2023-09-19T11:01:00;19.10;34.30
3136;DHT22;1578;47.658;9.922;2023-09-19T11:03:37;19.20;37.50
3136;DHT22;1578;47.658;9.922;2023-09-19T11:06:16;19.30;37.10
3136;DHT22;1578;47.658;9.922;2023-09-19T11:08:59;19.30;39.30
3136;DHT22;1578;47.658;9.922;2023-09-19T11:11:44;19.40;37.90
3136;DHT22;1578;47.658;9.922;2023-09-19T11:30:32;20.10;44.00
3136;DHT22;1578;47.658;9.922;2023-09-19T11:33:26;20.00;33.50
3136;DHT22;1578;47.658;9.922;2023-09-19T11:35:59;19.90;36.10
3136;DHT22;1578;47.658;9.922;2023-09-19T11:46:30;20.60;31.70
3136;DHT22;1578;47.658;9.922;2023-09-19T11:49:08;20.60;30.90
3136;DHT22;1578;47.658;9.922;2023-09-19T11:51:44;20.60;30.20
3136;DHT22;1578;47.658;9.922;2023-09-19T11:54:11;20.70;28.30
3136;DHT22;1578;47.658;9.922;2023-09-19T11:56:45;20.60;30.00
3136;DHT22;1578;47.658;9.922;2023-09-19T11:59:11;20.20;32.40
3136;DHT22;1578;47.658;9.922;2023-09-19T12:01:39;20.30;31.50
3136;DHT22;1578;47.658;9.922;2023-09-19T12:04:11;20.20;31.40
3136;DHT22;1578;47.658;9.922;2023-09-19T12:06:37;20.40;29.70
3136;DHT22;1578;47.658;9.922;2023-09-19T12:09:13;20.50;26.90
3136;DHT22;1578;47.658;9.922;2023-09-19T12:11:43;20.70;26.00
3136;DHT22;1578;47.658;9.922;2023-09-19T12:14:24;21.10;25.70
3136;DHT22;1578;47.658;9.922;2023-09-19T12:16:56;21.00;20.90
3136;DHT22;1578;47.658;9.922;2023-09-19T12:19:23;20.80;20.30
3136;DHT22;1578;47.658;9.922;2023-09-19T12:21:56;20.80;20.70
3136;DHT22;1578;47.658;9.922;2023-09-19T12:24:25;20.30;24.90
3136;DHT22;1578;47.658;9.922;2023-09-19T12:26:52;20.10;28.90
3136;DHT22;1578;47.658;9.922;2023-09-19T12:29:21;20.50;22.80
3136;DHT22;1578;47.658;9.922;2023-09-19T12:31:57;20.20;22.90
3136;DHT22;1578;47.658;9.922;2023-09-19T12:34:24;20.40;21.20
3136;DHT22;1578;47.658;9.922;2023-09-19T12:37:05;20.80;22.30
3136;DHT22;1578;47.658;9.922;2023-09-19T12:39:40;21.20;20.80
3136;DHT22;1578;47.658;9.922;2023-09-19T12:42:08;21.40;22.40
3136;DHT22;1578;47.658;9.922;2023-09-19T12:44:42;21.10;19.70
3136;DHT22;1578;47.658;9.922;2023-09-19T12:47:18;21.10;19.80
3136;DHT22;1578;47.658;9.922;2023-09-19T12:52:37;21.10;20.40
3136;DHT22;1578;47.658;9.922;2023-09-19T12:55:03;21.20;20.90
3136;DHT22;1578;47.658;9.922;2023-09-19T12:57:30;21.30;18.90
3136;DHT22;1578;47.658;9.922;2023-09-19T13:00:01;21.30;20.00
3136;DHT22;1578;47.658;9.922;2023-09-19T13:02:26;21.30;18.70
3136;DHT22;1578;47.658;9.922;2023-09-19T13:04:54;21.50;19.00
3136;DHT22;1578;47.658;9.922;2023-09-19T13:07:43;21.60;19.00
3136;DHT22;1578;47.658;9.922;2023-09-19T13:10:11;21.60;19.70
3136;DHT22;1578;47.658;9.922;2023-09-19T13:12:41;21.50;20.10
3136;DHT22;1578;47.658;9.922;2023-09-19T13:15:11;21.10;17.20
3136;DHT22;1578;47.658;9.922;2023-09-19T13:17:46;21.00;22.50
3136;DHT22;1578;47.658;9.922;2023-09-19T13:20:25;21.20;20.20
3136;DHT22;1578;47.658;9.922;2023-09-19T13:22:53;21.20;18.70
3136;DHT22;1578;47.658;9.922;2023-09-19T13:25:21;21.30;17.50
3136;DHT22;1578;47.658;9.922;2023-09-19T13:27:56;21.50;20.80
3136;DHT22;1578;47.658;9.922;2023-09-19T13:30:24;21.60;17.80
3136;DHT22;1578;47.658;9.922;2023-09-19T13:33:09;21.40;18.10
3136;DHT22;1578;47.658;9.922;2023-09-19T13:35:36;21.60;19.70
3136;DHT22;1578;47.658;9.922;2023-09-19T13:38:06;21.80;20.10
3136;DHT22;1578;47.658;9.922;2023-09-19T13:40:35;22.00;15.30
3136;DHT22;1578;47.658;9.922;2023-09-19T13:43:03;21.90;16.20
3136;DHT22;1578;47.658;9.922;2023-09-19T13:45:29;21.80;16.10
3136;DHT22;1578;47.658;9.922;2023-09-19T13:47:56;21.90;19.50
3136;DHT22;1578;47.658;9.922;2023-09-19T13:50:22;22.00;18.60
3136;DHT22;1578;47.658;9.922;2023-09-19T13:52:52;22.10;16.30
3136;DHT22;1578;47.658;9.922;2023-09-19T13:55:19;22.20;18.40
3136;DHT22;1578;47.658;9.922;2023-09-19T13:57:48;22.40;15.60
3136;DHT22;1578;47.658;9.922;2023-09-19T14:00:20;22.10;19.20
3136;DHT22;1578;47.658;9.922;2023-09-19T14:02:46;22.30;16.50
3136;DHT22;1578;47.658;9.922;2023-09-19T14:05:14;22.00;15.20
3136;DHT22;1578;47.658;9.922;2023-09-19T14:07:45;21.70;14.60
3136;DHT22;1578;47.658;9.922;2023-09-19T14:10:11;21.90;16.20
3136;DHT22;1578;47.658;9.922;2023-09-19T14:12:37;22.10;14.80
3136;DHT22;1578;47.658;9.922;2023-09-19T14:15:06;21.90;15.30
3136;DHT22;1578;47.658;9.922;2023-09-19T14:17:32;21.90;15.30
3136;DHT22;1578;47.658;9.922;2023-09-19T14:19:58;21.90;13.30
3136;DHT22;1578;47.658;9.922;2023-09-19T14:22:24;21.60;14.60
3136;DHT22;1578;47.658;9.922;2023-09-19T14:24:49;21.70;16.10
3136;DHT22;1578;47.658;9.922;2023-09-19T14:27:15;21.90;16.30
3136;DHT22;1578;47.658;9.922;2023-09-19T14:29:41;22.10;16.70
3136;DHT22;1578;47.658;9.922;2023-09-19T14:32:07;22.30;16.50
3136;DHT22;1578;47.658;9.922;2023-09-19T14:34:32;22.40;14.70
3136;DHT22;1578;47.658;9.922;2023-09-19T14:36:58;22.50;14.30
3136;DHT22;1578;47.658;9.922;2023-09-19T14:39:24;22.20;15.00
3136;DHT22;1578;47.658;9.922;2023-09-19T14:41:50;22.10;15.30
3136;DHT22;1578;47.658;9.922;2023-09-19T14:44:16;21.80;14.80
3136;DHT22;1578;47.658;9.922;2023-09-19T14:46:42;21.60;16.60
3136;DHT22;1578;47.658;9.922;2023-09-19T14:49:10;21.60;15.80
3136;DHT22;1578;47.658;9.922;2023-09-19T14:51:37;21.40;16.80
3136;DHT22;1578;47.658;9.922;2023-09-19T14:54:05;21.70;16.70
3136;DHT22;1578;47.658;9.922;2023-09-19T14:56:32;21.80;15.10
3136;DHT22;1578;47.658;9.922;2023-09-19T14:58:58;21.80;15.60
3136;DHT22;1578;47.658;9.922;2023-09-19T15:01:24;21.60;16.40
3136;DHT22;1578;47.658;9.922;2023-09-19T15:03:49;21.80;15.90
3136;DHT22;1578;47.658;9.922;2023-09-19T15:06:15;21.80;16.20
3136;DHT22;1578;47.658;9.922;2023-09-19T15:08:44;22.00;17.60
3136;DHT22;1578;47.658;9.922;2023-09-19T15:11:21;21.90;16.20
3136;DHT22;1578;47.658;9.922;2023-09-19T15:13:50;21.90;15.00
3136;DHT22;1578;47.658;9.922;2023-09-19T15:16:15;21.60;16.20
3136;DHT22;1578;47.658;9.922;2023-09-19T15:18:44;21.50;17.30
3136;DHT22;1578;47.658;9.922;2023-09-19T15:21:12;21.60;16.00
3136;DHT22;1578;47.658;9.922;2023-09-19T15:23:40;21.70;16.10
3136;DHT22;1578;47.658;9.922;2023-09-19T15:26:07;21.80;15.10
3136;DHT22;1578;47.658;9.922;2023-09-19T15:28:34;21.60;16.40
3136;DHT22;1578;47.658;9.922;2023-09-19T15:31:05;21.50;20.40
3136;DHT22;1578;47.658;9.922;2023-09-19T15:33:32;21.70;19.10
3136;DHT22;1578;47.658;9.922;2023-09-19T15:36:08;21.90;16.90
3136;DHT22;1578;47.658;9.922;2023-09-19T15:41:23;22.00;17.60
3136;DHT22;1578;47.658;9.922;2023-09-19T15:43:49;22.10;16.10
3136;DHT22;1578;47.658;9.922;2023-09-19T15:46:15;22.00;15.40
3136;DHT22;1578;47.658;9.922;2023-09-19T15:48:41;21.70;18.60
3136;DHT22;1578;47.658;9.922;2023-09-19T15:51:07;21.70;19.90
3136;DHT22;1578;47.658;9.922;2023-09-19T15:56:08;21.30;21.30
3136;DHT22;1578;47.658;9.922;2023-09-19T15:58:35;21.40;18.60
3136;DHT22;1578;47.658;9.922;2023-09-19T16:01:07;21.50;20.60
3136;DHT22;1578;47.658;9.922;2023-09-19T16:03:37;21.40;21.70
3136;DHT22;1578;47.658;9.922;2023-09-19T16:06:17;21.30;17.90
3136;DHT22;1578;47.658;9.922;2023-09-19T16:08:45;21.20;20.10
3136;DHT22;1578;47.658;9.922;2023-09-19T16:11:12;21.10;21.70
3136;DHT22;1578;47.658;9.922;2023-09-19T16:13:39;20.90;22.60
3136;DHT22;1578;47.658;9.922;2023-09-19T16:16:07;20.80;22.10
3136;DHT22;1578;47.658;9.922;2023-09-19T16:18:33;20.70;24.30
3136;DHT22;1578;47.658;9.922;2023-09-19T16:21:06;20.50;25.30
3136;DHT22;1578;47.658;9.922;2023-09-19T16:23:36;20.30;27.30
3136;DHT22;1578;47.658;9.922;2023-09-19T16:26:02;20.10;27.20
3136;DHT22;1578;47.658;9.922;2023-09-19T16:28:30;20.10;28.40
3136;DHT22;1578;47.658;9.922;2023-09-19T16:30:58;20.00;28.40
3136;DHT22;1578;47.658;9.922;2023-09-19T16:33:25;20.00;28.90
3136;DHT22;1578;47.658;9.922;2023-09-19T16:35:51;19.90;30.20
3136;DHT22;1578;47.658;9.922;2023-09-19T16:38:18;19.70;30.90
3136;DHT22;1578;47.658;9.922;2023-09-19T16:40:54;19.60;33.00
3136;DHT22;1578;47.658;9.922;2023-09-19T16:43:21;19.50;32.90
3136;DHT22;1578;47.658;9.922;2023-09-19T16:46:00;19.50;33.40
3136;DHT22;1578;47.658;9.922;2023-09-19T16:48:28;19.40;33.20
3136;DHT22;1578;47.658;9.922;2023-09-19T16:51:07;19.30;33.70
3136;DHT22;1578;47.658;9.922;2023-09-19T16:53:34;19.30;34.80
3136;DHT22;1578;47.658;9.922;2023-09-19T16:56:14;19.20;33.40
3136;DHT22;1578;47.658;9.922;2023-09-19T16:58:45;19.10;33.00
3136;DHT22;1578;47.658;9.922;2023-09-19T17:01:15;18.90;35.20
3136;DHT22;1578;47.658;9.922;2023-09-19T17:03:42;18.80;37.80
3136;DHT22;1578;47.658;9.922;2023-09-19T17:06:09;18.70;39.50
3136;DHT22;1578;47.658;9.922;2023-09-19T17:08:37;18.60;41.10